sensor_id;sensor_type;location;lat;lon;timestamp;P1;durP1;ratioP1;P2;durP2;ratioP2
15130;SDS011;7666;50.920;4.628;2022-09-01T00:01:16;6.57;;;3.43;;
15130;SDS011;7666;50.920;4.628;2022-09-01T00:04:05;8.67;;;3.43;;
15130;SDS011;7666;50.920;4.628;2022-09-01T00:06:54;6.17;;;3.17;;
15130;SDS011;7666;50.920;4.628;2022-09-01T00:09:40;7.80;;;3.57;;
15130;SDS011;7666;50.920;4.628;2022-09-01T00:12:27;6.90;;;3.57;;
15130;SDS011;7666;50.920;4.628;2022-09-01T00:15:14;7.07;;;3.30;;
15130;SDS011;7666;50.920;4.628;2022-09-01T00:18:00;9.67;;;3.47;;
15130;SDS011;7666;50.920;4.628;2022-09-01T00:20:46;6.60;;;3.27;;
15130;SDS011;7666;50.920;4.628;2022-09-01T00:23:32;8.23;;;3.70;;
15130;SDS011;7666;50.920;4.628;2022-09-01T00:26:18;6.43;;;3.43;;
15130;SDS011;7666;50.920;4.628;2022-09-01T00:29:05;6.70;;;3.77;;
15130;SDS011;7666;50.920;4.628;2022-09-01T00:31:51;9.93;;;3.63;;
15130;SDS011;7666;50.920;4.628;2022-09-01T00:34:38;8.67;;;3.80;;
15130;SDS011;7666;50.920;4.628;2022-09-01T00:37:24;7.50;;;4.00;;
15130;SDS011;7666;50.920;4.628;2022-09-01T00:40:11;8.43;;;3.30;;
15130;SDS011;7666;50.920;4.628;2022-09-01T00:42:58;6.97;;;3.50;;
15130;SDS011;7666;50.920;4.628;2022-09-01T00:45:44;5.73;;;3.43;;
15130;SDS011;7666;50.920;4.628;2022-09-01T00:48:30;7.13;;;3.57;;
15130;SDS011;7666;50.920;4.628;2022-09-01T00:51:17;8.57;;;3.90;;
15130;SDS011;7666;50.920;4.628;2022-09-01T00:54:03;5.90;;;3.80;;
15130;SDS011;7666;50.920;4.628;2022-09-01T00:56:53;7.70;;;4.30;;
15130;SDS011;7666;50.920;4.628;2022-09-01T00:59:49;8.57;;;4.37;;
15130;SDS011;7666;50.920;4.628;2022-09-01T01:02:42;7.00;;;4.23;;
15130;SDS011;7666;50.920;4.628;2022-09-01T01:05:30;8.97;;;4.60;;
15130;SDS011;7666;50.920;4.628;2022-09-01T01:08:23;6.23;;;4.33;;
15130;SDS011;7666;50.920;4.628;2022-09-01T01:11:18;8.23;;;4.40;;
15130;SDS011;7666;50.920;4.628;2022-09-01T01:14:05;10.10;;;4.80;;
15130;SDS011;7666;50.920;4.628;2022-09-01T01:17:01;8.80;;;4.80;;
15130;SDS011;7666;50.920;4.628;2022-09-01T01:19:49;7.83;;;4.80;;
15130;SDS011;7666;50.920;4.628;2022-09-01T01:25:55;6.37;;;4.30;;
15130;SDS011;7666;50.920;4.628;2022-09-01T01:28:43;7.03;;;4.37;;
15130;SDS011;7666;50.920;4.628;2022-09-01T01:31:29;7.93;;;4.57;;
15130;SDS011;7666;50.920;4.628;2022-09-01T01:34:16;7.17;;;4.37;;
15130;SDS011;7666;50.920;4.628;2022-09-01T01:37:02;9.83;;;4.50;;
15130;SDS011;7666;50.920;4.628;2022-09-01T01:39:48;7.07;;;3.90;;
15130;SDS011;7666;50.920;4.628;2022-09-01T01:42:34;5.33;;;3.80;;
15130;SDS011;7666;50.920;4.628;2022-09-01T01:45:23;6.33;;;4.37;;
15130;SDS011;7666;50.920;4.628;2022-09-01T01:48:09;6.63;;;4.60;;
15130;SDS011;7666;50.920;4.628;2022-09-01T01:50:55;11.60;;;4.60;;
15130;SDS011;7666;50.920;4.628;2022-09-01T01:53:43;8.63;;;4.47;;
15130;SDS011;7666;50.920;4.628;2022-09-01T01:56:30;6.03;;;4.43;;
15130;SDS011;7666;50.920;4.628;2022-09-01T01:59:17;9.73;;;4.70;;
15130;SDS011;7666;50.920;4.628;2022-09-01T02:02:03;6.13;;;3.90;;
15130;SDS011;7666;50.920;4.628;2022-09-01T02:04:54;6.93;;;4.60;;
15130;SDS011;7666;50.920;4.628;2022-09-01T02:07:39;8.63;;;4.63;;
15130;SDS011;7666;50.920;4.628;2022-09-01T02:10:29;9.53;;;4.60;;
15130;SDS011;7666;50.920;4.628;2022-09-01T02:13:18;7.37;;;4.80;;
15130;SDS011;7666;50.920;4.628;2022-09-01T02:16:09;8.60;;;4.67;;
15130;SDS011;7666;50.920;4.628;2022-09-01T02:18:59;6.73;;;4.13;;
15130;SDS011;7666;50.920;4.628;2022-09-01T02:21:46;9.20;;;4.43;;
15130;SDS011;7666;50.920;4.628;2022-09-01T02:24:37;9.87;;;4.83;;
15130;SDS011;7666;50.920;4.628;2022-09-01T02:27:29;5.90;;;3.87;;
15130;SDS011;7666;50.920;4.628;2022-09-01T02:30:19;5.20;;;4.33;;
15130;SDS011;7666;50.920;4.628;2022-09-01T02:33:06;5.80;;;4.13;;
15130;SDS011;7666;50.920;4.628;2022-09-01T02:35:54;5.83;;;4.07;;
15130;SDS011;7666;50.920;4.628;2022-09-01T02:38:45;9.20;;;4.50;;
15130;SDS011;7666;50.920;4.628;2022-09-01T02:41:33;9.47;;;4.60;;
15130;SDS011;7666;50.920;4.628;2022-09-01T02:44:19;6.40;;;4.20;;
15130;SDS011;7666;50.920;4.628;2022-09-01T02:47:06;7.40;;;4.40;;
15130;SDS011;7666;50.920;4.628;2022-09-01T02:49:54;8.40;;;4.53;;
15130;SDS011;7666;50.920;4.628;2022-09-01T02:52:40;6.80;;;4.37;;
15130;SDS011;7666;50.920;4.628;2022-09-01T02:55:26;6.43;;;4.23;;
15130;SDS011;7666;50.920;4.628;2022-09-01T02:58:12;5.33;;;3.80;;
15130;SDS011;7666;50.920;4.628;2022-09-01T03:01:04;7.23;;;4.40;;
15130;SDS011;7666;50.920;4.628;2022-09-01T03:03:59;6.50;;;4.20;;
15130;SDS011;7666;50.920;4.628;2022-09-01T03:06:46;6.07;;;4.00;;
15130;SDS011;7666;50.920;4.628;2022-09-01T03:09:34;5.87;;;3.83;;
15130;SDS011;7666;50.920;4.628;2022-09-01T03:12:21;7.90;;;4.43;;
15130;SDS011;7666;50.920;4.628;2022-09-01T03:15:09;6.10;;;4.00;;
15130;SDS011;7666;50.920;4.628;2022-09-01T03:17:56;7.63;;;3.97;;
15130;SDS011;7666;50.920;4.628;2022-09-01T03:20:45;7.13;;;4.43;;
15130;SDS011;7666;50.920;4.628;2022-09-01T03:23:31;5.63;;;3.70;;
15130;SDS011;7666;50.920;4.628;2022-09-01T03:26:19;6.43;;;4.10;;
15130;SDS011;7666;50.920;4.628;2022-09-01T03:29:07;8.37;;;4.03;;
15130;SDS011;7666;50.920;4.628;2022-09-01T03:31:53;8.70;;;4.53;;
15130;SDS011;7666;50.920;4.628;2022-09-01T03:34:39;6.27;;;4.27;;
15130;SDS011;7666;50.920;4.628;2022-09-01T03:37:25;7.83;;;4.40;;
15130;SDS011;7666;50.920;4.628;2022-09-01T03:40:12;8.37;;;4.10;;
15130;SDS011;7666;50.920;4.628;2022-09-01T03:43:01;6.73;;;4.30;;
15130;SDS011;7666;50.920;4.628;2022-09-01T03:45:48;7.33;;;4.17;;
15130;SDS011;7666;50.920;4.628;2022-09-01T03:48:34;6.87;;;4.47;;
15130;SDS011;7666;50.920;4.628;2022-09-01T03:51:24;5.43;;;3.97;;
15130;SDS011;7666;50.920;4.628;2022-09-01T03:54:10;5.83;;;3.83;;
15130;SDS011;7666;50.920;4.628;2022-09-01T03:56:56;6.67;;;4.20;;
15130;SDS011;7666;50.920;4.628;2022-09-01T03:59:44;7.30;;;3.70;;
15130;SDS011;7666;50.920;4.628;2022-09-01T04:02:30;8.77;;;4.83;;
15130;SDS011;7666;50.920;4.628;2022-09-01T04:05:16;6.67;;;4.20;;
15130;SDS011;7666;50.920;4.628;2022-09-01T04:08:06;5.87;;;4.10;;
15130;SDS011;7666;50.920;4.628;2022-09-01T04:10:56;7.80;;;4.47;;
15130;SDS011;7666;50.920;4.628;2022-09-01T04:13:44;7.13;;;4.50;;
15130;SDS011;7666;50.920;4.628;2022-09-01T04:16:32;6.87;;;3.90;;
15130;SDS011;7666;50.920;4.628;2022-09-01T04:19:37;5.80;;;3.80;;
15130;SDS011;7666;50.920;4.628;2022-09-01T04:22:23;7.03;;;3.97;;
15130;SDS011;7666;50.920;4.628;2022-09-01T04:25:13;8.37;;;4.50;;
15130;SDS011;7666;50.920;4.628;2022-09-01T04:28:00;8.40;;;4.50;;
15130;SDS011;7666;50.920;4.628;2022-09-01T04:30:59;7.57;;;4.20;;
15130;SDS011;7666;50.920;4.628;2022-09-01T04:33:50;6.87;;;4.60;;
15130;SDS011;7666;50.920;4.628;2022-09-01T04:36:37;6.33;;;4.03;;
15130;SDS011;7666;50.920;4.628;2022-09-01T04:39:25;7.90;;;4.20;;
15130;SDS011;7666;50.920;4.628;2022-09-01T04:42:12;8.43;;;4.30;;
15130;SDS011;7666;50.920;4.628;2022-09-01T04:44:59;7.07;;;4.00;;
15130;SDS011;7666;50.920;4.628;2022-09-01T04:47:45;6.80;;;4.10;;
15130;SDS011;7666;50.920;4.628;2022-09-01T04:50:32;6.53;;;3.80;;
15130;SDS011;7666;50.920;4.628;2022-09-01T04:53:19;6.97;;;4.43;;
15130;SDS011;7666;50.920;4.628;2022-09-01T04:56:05;6.47;;;3.93;;
15130;SDS011;7666;50.920;4.628;2022-09-01T04:58:54;5.27;;;3.80;;
15130;SDS011;7666;50.920;4.628;2022-09-01T05:01:40;6.73;;;4.20;;
15130;SDS011;7666;50.920;4.628;2022-09-01T05:04:31;5.93;;;3.33;;
15130;SDS011;7666;50.920;4.628;2022-09-01T05:07:18;7.17;;;3.90;;
15130;SDS011;7666;50.920;4.628;2022-09-01T05:10:04;6.33;;;3.93;;
15130;SDS011;7666;50.920;4.628;2022-09-01T05:12:51;5.70;;;3.53;;
15130;SDS011;7666;50.920;4.628;2022-09-01T05:15:40;5.73;;;4.00;;
15130;SDS011;7666;50.920;4.628;2022-09-01T05:18:31;7.40;;;4.03;;
15130;SDS011;7666;50.920;4.628;2022-09-01T05:21:18;6.80;;;3.70;;
15130;SDS011;7666;50.920;4.628;2022-09-01T05:24:06;5.93;;;4.03;;
15130;SDS011;7666;50.920;4.628;2022-09-01T05:26:53;5.80;;;3.80;;
15130;SDS011;7666;50.920;4.628;2022-09-01T05:29:39;7.50;;;4.10;;
15130;SDS011;7666;50.920;4.628;2022-09-01T05:32:25;7.27;;;3.83;;
15130;SDS011;7666;50.920;4.628;2022-09-01T05:35:13;8.60;;;4.03;;
15130;SDS011;7666;50.920;4.628;2022-09-01T05:37:59;8.33;;;4.20;;
15130;SDS011;7666;50.920;4.628;2022-09-01T05:40:54;7.67;;;3.87;;
15130;SDS011;7666;50.920;4.628;2022-09-01T05:43:48;11.00;;;4.17;;
15130;SDS011;7666;50.920;4.628;2022-09-01T05:46:36;17.20;;;4.30;;
15130;SDS011;7666;50.920;4.628;2022-09-01T05:49:23;122.67;;;9.80;;
15130;SDS011;7666;50.920;4.628;2022-09-01T05:52:10;14.87;;;4.40;;
15130;SDS011;7666;50.920;4.628;2022-09-01T05:54:56;9.63;;;4.27;;
15130;SDS011;7666;50.920;4.628;2022-09-01T05:57:45;9.50;;;4.20;;
15130;SDS011;7666;50.920;4.628;2022-09-01T06:00:32;8.87;;;4.20;;
15130;SDS011;7666;50.920;4.628;2022-09-01T06:03:19;12.47;;;4.17;;
15130;SDS011;7666;50.920;4.628;2022-09-01T06:06:06;6.10;;;3.77;;
15130;SDS011;7666;50.920;4.628;2022-09-01T06:08:56;13.37;;;4.40;;
15130;SDS011;7666;50.920;4.628;2022-09-01T06:11:46;8.43;;;3.87;;
15130;SDS011;7666;50.920;4.628;2022-09-01T06:14:32;10.57;;;4.43;;
15130;SDS011;7666;50.920;4.628;2022-09-01T06:17:19;8.23;;;4.00;;
15130;SDS011;7666;50.920;4.628;2022-09-01T06:20:08;8.70;;;4.13;;
15130;SDS011;7666;50.920;4.628;2022-09-01T06:22:55;7.10;;;4.50;;
15130;SDS011;7666;50.920;4.628;2022-09-01T06:25:41;6.68;;;4.20;;
15130;SDS011;7666;50.920;4.628;2022-09-01T06:28:31;9.30;;;4.65;;
15130;SDS011;7666;50.920;4.628;2022-09-01T06:31:16;7.23;;;4.67;;
15130;SDS011;7666;50.920;4.628;2022-09-01T06:34:07;8.87;;;4.27;;
15130;SDS011;7666;50.920;4.628;2022-09-01T06:36:54;9.63;;;4.73;;
15130;SDS011;7666;50.920;4.628;2022-09-01T06:39:40;6.47;;;4.13;;
15130;SDS011;7666;50.920;4.628;2022-09-01T06:42:28;8.73;;;3.90;;
15130;SDS011;7666;50.920;4.628;2022-09-01T06:45:16;8.60;;;4.27;;
15130;SDS011;7666;50.920;4.628;2022-09-01T06:48:05;7.13;;;4.20;;
15130;SDS011;7666;50.920;4.628;2022-09-01T06:50:51;7.30;;;3.53;;
15130;SDS011;7666;50.920;4.628;2022-09-01T06:53:37;6.23;;;3.40;;
15130;SDS011;7666;50.920;4.628;2022-09-01T06:56:23;10.23;;;3.97;;
15130;SDS011;7666;50.920;4.628;2022-09-01T06:59:12;10.00;;;3.63;;
15130;SDS011;7666;50.920;4.628;2022-09-01T07:02:00;8.90;;;3.43;;
15130;SDS011;7666;50.920;4.628;2022-09-01T07:04:47;5.37;;;3.47;;
15130;SDS011;7666;50.920;4.628;2022-09-01T07:07:34;5.23;;;3.47;;
15130;SDS011;7666;50.920;4.628;2022-09-01T07:10:22;10.00;;;3.93;;
15130;SDS011;7666;50.920;4.628;2022-09-01T07:13:10;13.27;;;3.40;;
15130;SDS011;7666;50.920;4.628;2022-09-01T07:16:04;5.80;;;3.27;;
15130;SDS011;7666;50.920;4.628;2022-09-01T07:18:53;6.97;;;3.50;;
15130;SDS011;7666;50.920;4.628;2022-09-01T07:21:43;4.70;;;2.97;;
15130;SDS011;7666;50.920;4.628;2022-09-01T07:24:29;6.37;;;3.30;;
15130;SDS011;7666;50.920;4.628;2022-09-01T07:27:15;6.63;;;3.47;;
15130;SDS011;7666;50.920;4.628;2022-09-01T07:30:02;6.17;;;3.03;;
15130;SDS011;7666;50.920;4.628;2022-09-01T07:32:51;8.30;;;3.33;;
15130;SDS011;7666;50.920;4.628;2022-09-01T07:35:39;5.40;;;3.20;;
15130;SDS011;7666;50.920;4.628;2022-09-01T07:38:26;8.30;;;3.13;;
15130;SDS011;7666;50.920;4.628;2022-09-01T07:41:12;6.17;;;3.13;;
15130;SDS011;7666;50.920;4.628;2022-09-01T07:43:58;4.23;;;3.13;;
15130;SDS011;7666;50.920;4.628;2022-09-01T07:46:47;9.93;;;3.37;;
15130;SDS011;7666;50.920;4.628;2022-09-01T07:49:36;5.50;;;3.20;;
15130;SDS011;7666;50.920;4.628;2022-09-01T07:52:22;8.60;;;2.93;;
15130;SDS011;7666;50.920;4.628;2022-09-01T07:57:56;7.63;;;3.30;;
15130;SDS011;7666;50.920;4.628;2022-09-01T08:00:44;6.30;;;2.70;;
15130;SDS011;7666;50.920;4.628;2022-09-01T08:03:31;4.43;;;3.10;;
15130;SDS011;7666;50.920;4.628;2022-09-01T08:06:18;6.83;;;2.97;;
15130;SDS011;7666;50.920;4.628;2022-09-01T08:09:05;8.10;;;3.10;;
15130;SDS011;7666;50.920;4.628;2022-09-01T08:11:51;8.30;;;2.90;;
15130;SDS011;7666;50.920;4.628;2022-09-01T08:14:37;5.93;;;2.70;;
15130;SDS011;7666;50.920;4.628;2022-09-01T08:17:23;6.37;;;3.23;;
15130;SDS011;7666;50.920;4.628;2022-09-01T08:20:09;4.47;;;2.70;;
15130;SDS011;7666;50.920;4.628;2022-09-01T08:22:56;5.47;;;2.80;;
15130;SDS011;7666;50.920;4.628;2022-09-01T08:25:42;2.83;;;2.30;;
15130;SDS011;7666;50.920;4.628;2022-09-01T08:28:29;4.37;;;2.40;;
15130;SDS011;7666;50.920;4.628;2022-09-01T08:31:17;4.87;;;2.20;;
15130;SDS011;7666;50.920;4.628;2022-09-01T08:34:04;4.80;;;2.70;;
15130;SDS011;7666;50.920;4.628;2022-09-01T08:36:50;4.53;;;2.57;;
15130;SDS011;7666;50.920;4.628;2022-09-01T08:39:36;5.40;;;2.50;;
15130;SDS011;7666;50.920;4.628;2022-09-01T08:45:46;4.30;;;2.17;;
15130;SDS011;7666;50.920;4.628;2022-09-01T08:48:42;4.37;;;1.87;;
15130;SDS011;7666;50.920;4.628;2022-09-01T08:51:32;3.90;;;2.13;;
15130;SDS011;7666;50.920;4.628;2022-09-01T08:57:23;4.30;;;2.33;;
15130;SDS011;7666;50.920;4.628;2022-09-01T09:00:15;3.33;;;2.07;;
15130;SDS011;7666;50.920;4.628;2022-09-01T09:03:25;7.00;;;2.33;;
15130;SDS011;7666;50.920;4.628;2022-09-01T09:09:16;5.47;;;1.97;;
15130;SDS011;7666;50.920;4.628;2022-09-01T09:12:08;6.93;;;1.97;;
15130;SDS011;7666;50.920;4.628;2022-09-01T09:15:26;8.97;;;1.80;;
15130;SDS011;7666;50.920;4.628;2022-09-01T09:21:40;5.40;;;1.80;;
15130;SDS011;7666;50.920;4.628;2022-09-01T09:27:35;7.10;;;2.27;;
15130;SDS011;7666;50.920;4.628;2022-09-01T09:30:29;3.57;;;1.80;;
15130;SDS011;7666;50.920;4.628;2022-09-01T09:33:33;7.90;;;1.90;;
15130;SDS011;7666;50.920;4.628;2022-09-01T09:36:32;2.63;;;1.77;;
15130;SDS011;7666;50.920;4.628;2022-09-01T09:39:20;5.33;;;1.70;;
15130;SDS011;7666;50.920;4.628;2022-09-01T09:42:08;3.87;;;2.07;;
15130;SDS011;7666;50.920;4.628;2022-09-01T09:44:56;2.43;;;1.60;;
15130;SDS011;7666;50.920;4.628;2022-09-01T09:47:44;4.67;;;1.60;;
15130;SDS011;7666;50.920;4.628;2022-09-01T09:50:31;4.93;;;1.80;;
15130;SDS011;7666;50.920;4.628;2022-09-01T09:53:29;4.57;;;1.80;;
15130;SDS011;7666;50.920;4.628;2022-09-01T09:56:21;6.53;;;1.77;;
15130;SDS011;7666;50.920;4.628;2022-09-01T10:08:35;2.50;;;1.90;;
15130;SDS011;7666;50.920;4.628;2022-09-01T10:11:36;7.17;;;1.80;;
15130;SDS011;7666;50.920;4.628;2022-09-01T10:14:32;3.00;;;1.40;;
15130;SDS011;7666;50.920;4.628;2022-09-01T10:17:28;3.53;;;1.30;;
15130;SDS011;7666;50.920;4.628;2022-09-01T10:20:20;4.53;;;1.50;;
15130;SDS011;7666;50.920;4.628;2022-09-01T10:23:08;1.53;;;1.40;;
15130;SDS011;7666;50.920;4.628;2022-09-01T10:25:57;3.03;;;1.47;;
15130;SDS011;7666;50.920;4.628;2022-09-01T10:29:14;3.47;;;1.40;;
15130;SDS011;7666;50.920;4.628;2022-09-01T10:32:05;3.57;;;1.40;;
15130;SDS011;7666;50.920;4.628;2022-09-01T10:34:54;7.27;;;1.40;;
15130;SDS011;7666;50.920;4.628;2022-09-01T10:37:42;2.23;;;1.30;;
15130;SDS011;7666;50.920;4.628;2022-09-01T10:43:24;4.43;;;1.47;;
15130;SDS011;7666;50.920;4.628;2022-09-01T10:49:19;2.70;;;1.10;;
15130;SDS011;7666;50.920;4.628;2022-09-01T10:55:40;4.63;;;1.20;;
15130;SDS011;7666;50.920;4.628;2022-09-01T11:25:30;4.40;;;1.50;;
15130;SDS011;7666;50.920;4.628;2022-09-01T11:31:25;1.67;;;1.20;;
15130;SDS011;7666;50.920;4.628;2022-09-01T11:34:19;2.17;;;1.20;;
15130;SDS011;7666;50.920;4.628;2022-09-01T11:37:14;2.13;;;1.20;;
15130;SDS011;7666;50.920;4.628;2022-09-01T11:40:03;1.70;;;1.13;;
15130;SDS011;7666;50.920;4.628;2022-09-01T11:42:53;1.43;;;1.20;;
15130;SDS011;7666;50.920;4.628;2022-09-01T11:45:55;2.50;;;1.43;;
15130;SDS011;7666;50.920;4.628;2022-09-01T11:48:56;2.30;;;1.27;;
15130;SDS011;7666;50.920;4.628;2022-09-01T11:51:45;4.77;;;1.40;;
15130;SDS011;7666;50.920;4.628;2022-09-01T11:54:36;4.23;;;1.33;;
15130;SDS011;7666;50.920;4.628;2022-09-01T11:57:34;2.03;;;1.20;;
15130;SDS011;7666;50.920;4.628;2022-09-01T12:00:26;3.17;;;1.30;;
15130;SDS011;7666;50.920;4.628;2022-09-01T12:03:24;3.23;;;1.43;;
15130;SDS011;7666;50.920;4.628;2022-09-01T12:06:19;5.10;;;1.80;;
15130;SDS011;7666;50.920;4.628;2022-09-01T12:09:10;2.17;;;1.40;;
15130;SDS011;7666;50.920;4.628;2022-09-01T12:11:56;2.73;;;1.50;;
15130;SDS011;7666;50.920;4.628;2022-09-01T12:14:42;2.87;;;1.53;;
15130;SDS011;7666;50.920;4.628;2022-09-01T12:17:39;2.40;;;1.40;;
15130;SDS011;7666;50.920;4.628;2022-09-01T12:23:18;1.87;;;1.30;;
15130;SDS011;7666;50.920;4.628;2022-09-01T12:26:19;2.25;;;1.38;;
15130;SDS011;7666;50.920;4.628;2022-09-01T12:29:13;2.72;;;1.40;;
15130;SDS011;7666;50.920;4.628;2022-09-01T12:32:00;4.00;;;1.33;;
15130;SDS011;7666;50.920;4.628;2022-09-01T12:34:58;1.88;;;1.30;;
15130;SDS011;7666;50.920;4.628;2022-09-01T12:37:45;1.75;;;1.23;;
15130;SDS011;7666;50.920;4.628;2022-09-01T12:40:33;2.83;;;1.38;;
15130;SDS011;7666;50.920;4.628;2022-09-01T12:46:39;1.77;;;1.30;;
15130;SDS011;7666;50.920;4.628;2022-09-01T12:49:37;3.05;;;1.70;;
15130;SDS011;7666;50.920;4.628;2022-09-01T12:52:24;1.42;;;1.33;;
15130;SDS011;7666;50.920;4.628;2022-09-01T12:55:16;2.33;;;1.23;;
15130;SDS011;7666;50.920;4.628;2022-09-01T12:58:04;4.00;;;1.30;;
15130;SDS011;7666;50.920;4.628;2022-09-01T13:00:53;4.50;;;1.70;;
15130;SDS011;7666;50.920;4.628;2022-09-01T13:03:39;2.33;;;1.70;;
15130;SDS011;7666;50.920;4.628;2022-09-01T13:06:25;3.78;;;1.90;;
15130;SDS011;7666;50.920;4.628;2022-09-01T13:09:11;3.20;;;1.50;;
15130;SDS011;7666;50.920;4.628;2022-09-01T13:15:16;3.53;;;1.40;;
15130;SDS011;7666;50.920;4.628;2022-09-01T13:18:02;2.05;;;1.40;;
15130;SDS011;7666;50.920;4.628;2022-09-01T13:20:49;2.17;;;1.38;;
15130;SDS011;7666;50.920;4.628;2022-09-01T13:23:36;3.47;;;1.52;;
15130;SDS011;7666;50.920;4.628;2022-09-01T13:26:22;2.97;;;1.58;;
15130;SDS011;7666;50.920;4.628;2022-09-01T13:29:08;3.40;;;1.33;;
15130;SDS011;7666;50.920;4.628;2022-09-01T13:31:54;3.00;;;1.40;;
15130;SDS011;7666;50.920;4.628;2022-09-01T13:34:40;2.50;;;1.30;;
15130;SDS011;7666;50.920;4.628;2022-09-01T13:37:26;4.03;;;1.30;;
15130;SDS011;7666;50.920;4.628;2022-09-01T13:40:12;5.32;;;1.95;;
15130;SDS011;7666;50.920;4.628;2022-09-01T13:43:01;2.65;;;1.35;;
15130;SDS011;7666;50.920;4.628;2022-09-01T13:45:48;1.75;;;1.30;;
15130;SDS011;7666;50.920;4.628;2022-09-01T13:48:34;2.38;;;1.35;;
15130;SDS011;7666;50.920;4.628;2022-09-01T13:51:24;4.15;;;1.40;;
15130;SDS011;7666;50.920;4.628;2022-09-01T13:54:11;2.95;;;1.42;;
15130;SDS011;7666;50.920;4.628;2022-09-01T13:56:57;3.63;;;1.20;;
15130;SDS011;7666;50.920;4.628;2022-09-01T13:59:43;2.42;;;1.20;;
15130;SDS011;7666;50.920;4.628;2022-09-01T14:02:29;3.53;;;0.88;;
15130;SDS011;7666;50.920;4.628;2022-09-01T14:05:16;2.25;;;1.38;;
15130;SDS011;7666;50.920;4.628;2022-09-01T14:08:04;3.00;;;1.25;;
15130;SDS011;7666;50.920;4.628;2022-09-01T14:10:51;3.83;;;1.50;;
15130;SDS011;7666;50.920;4.628;2022-09-01T14:13:38;2.42;;;1.08;;
15130;SDS011;7666;50.920;4.628;2022-09-01T14:16:24;1.90;;;1.00;;
15130;SDS011;7666;50.920;4.628;2022-09-01T14:19:10;3.08;;;1.25;;
15130;SDS011;7666;50.920;4.628;2022-09-01T14:21:56;2.30;;;1.10;;
15130;SDS011;7666;50.920;4.628;2022-09-01T14:24:42;2.60;;;1.30;;
15130;SDS011;7666;50.920;4.628;2022-09-01T14:27:28;2.00;;;1.07;;
15130;SDS011;7666;50.920;4.628;2022-09-01T14:30:17;1.50;;;1.00;;
15130;SDS011;7666;50.920;4.628;2022-09-01T14:33:05;1.67;;;1.20;;
15130;SDS011;7666;50.920;4.628;2022-09-01T14:35:52;4.97;;;1.53;;
15130;SDS011;7666;50.920;4.628;2022-09-01T14:38:38;2.70;;;1.23;;
15130;SDS011;7666;50.920;4.628;2022-09-01T14:41:24;4.75;;;1.17;;
15130;SDS011;7666;50.920;4.628;2022-09-01T14:44:10;1.50;;;1.00;;
15130;SDS011;7666;50.920;4.628;2022-09-01T14:46:56;1.83;;;1.00;;
15130;SDS011;7666;50.920;4.628;2022-09-01T14:49:42;1.92;;;1.30;;
15130;SDS011;7666;50.920;4.628;2022-09-01T14:52:29;2.63;;;1.30;;
15130;SDS011;7666;50.920;4.628;2022-09-01T14:55:15;2.07;;;1.10;;
15130;SDS011;7666;50.920;4.628;2022-09-01T14:58:01;3.40;;;1.20;;
15130;SDS011;7666;50.920;4.628;2022-09-01T15:00:47;1.87;;;1.20;;
15130;SDS011;7666;50.920;4.628;2022-09-01T15:03:34;5.00;;;1.33;;
15130;SDS011;7666;50.920;4.628;2022-09-01T15:06:20;2.10;;;1.20;;
15130;SDS011;7666;50.920;4.628;2022-09-01T15:09:07;3.23;;;1.20;;
15130;SDS011;7666;50.920;4.628;2022-09-01T15:11:53;2.33;;;0.90;;
15130;SDS011;7666;50.920;4.628;2022-09-01T15:14:39;2.00;;;1.27;;
15130;SDS011;7666;50.920;4.628;2022-09-01T15:17:26;1.53;;;0.90;;
15130;SDS011;7666;50.920;4.628;2022-09-01T15:20:12;2.60;;;1.00;;
15130;SDS011;7666;50.920;4.628;2022-09-01T15:23:18;2.80;;;1.13;;
15130;SDS011;7666;50.920;4.628;2022-09-01T15:26:06;3.57;;;0.97;;
15130;SDS011;7666;50.920;4.628;2022-09-01T15:28:52;2.60;;;1.27;;
15130;SDS011;7666;50.920;4.628;2022-09-01T15:31:41;2.13;;;1.30;;
15130;SDS011;7666;50.920;4.628;2022-09-01T15:34:28;3.47;;;1.30;;
15130;SDS011;7666;50.920;4.628;2022-09-01T15:37:14;1.60;;;1.10;;
15130;SDS011;7666;50.920;4.628;2022-09-01T15:40:00;3.53;;;1.10;;
15130;SDS011;7666;50.920;4.628;2022-09-01T15:42:46;2.75;;;1.20;;
15130;SDS011;7666;50.920;4.628;2022-09-01T15:45:32;3.13;;;1.27;;
15130;SDS011;7666;50.920;4.628;2022-09-01T15:48:19;3.07;;;1.10;;
15130;SDS011;7666;50.920;4.628;2022-09-01T15:51:11;6.50;;;1.00;;
15130;SDS011;7666;50.920;4.628;2022-09-01T15:54:15;2.03;;;1.27;;
15130;SDS011;7666;50.920;4.628;2022-09-01T15:57:04;4.60;;;1.10;;
15130;SDS011;7666;50.920;4.628;2022-09-01T15:59:50;3.40;;;1.20;;
15130;SDS011;7666;50.920;4.628;2022-09-01T16:02:36;3.83;;;1.33;;
15130;SDS011;7666;50.920;4.628;2022-09-01T16:05:23;2.13;;;1.20;;
15130;SDS011;7666;50.920;4.628;2022-09-01T16:08:09;3.23;;;1.30;;
15130;SDS011;7666;50.920;4.628;2022-09-01T16:10:55;2.17;;;1.20;;
15130;SDS011;7666;50.920;4.628;2022-09-01T16:13:41;2.33;;;1.13;;
15130;SDS011;7666;50.920;4.628;2022-09-01T16:19:52;2.03;;;1.30;;
15130;SDS011;7666;50.920;4.628;2022-09-01T16:22:53;3.10;;;1.30;;
15130;SDS011;7666;50.920;4.628;2022-09-01T16:25:40;1.90;;;1.10;;
15130;SDS011;7666;50.920;4.628;2022-09-01T16:28:29;2.73;;;1.20;;
15130;SDS011;7666;50.920;4.628;2022-09-01T16:31:24;3.20;;;1.37;;
15130;SDS011;7666;50.920;4.628;2022-09-01T16:34:13;4.33;;;1.40;;
15130;SDS011;7666;50.920;4.628;2022-09-01T16:45:49;1.87;;;1.07;;
15130;SDS011;7666;50.920;4.628;2022-09-01T16:49:02;3.20;;;1.30;;
15130;SDS011;7666;50.920;4.628;2022-09-01T16:52:01;5.00;;;1.07;;
15130;SDS011;7666;50.920;4.628;2022-09-01T17:07:19;2.53;;;1.10;;
15130;SDS011;7666;50.920;4.628;2022-09-01T17:13:43;2.20;;;1.00;;
15130;SDS011;7666;50.920;4.628;2022-09-01T17:16:35;3.73;;;1.20;;
15130;SDS011;7666;50.920;4.628;2022-09-01T17:19:26;2.70;;;1.20;;
15130;SDS011;7666;50.920;4.628;2022-09-01T17:22:13;3.43;;;1.30;;
15130;SDS011;7666;50.920;4.628;2022-09-01T17:25:18;3.20;;;1.03;;
15130;SDS011;7666;50.920;4.628;2022-09-01T17:28:13;5.93;;;1.27;;
15130;SDS011;7666;50.920;4.628;2022-09-01T17:31:10;2.67;;;1.23;;
15130;SDS011;7666;50.920;4.628;2022-09-01T17:40:09;1.80;;;1.10;;
15130;SDS011;7666;50.920;4.628;2022-09-01T17:46:58;3.80;;;1.00;;
15130;SDS011;7666;50.920;4.628;2022-09-01T17:49:52;2.87;;;1.00;;
15130;SDS011;7666;50.920;4.628;2022-09-01T17:56:21;2.90;;;1.20;;
15130;SDS011;7666;50.920;4.628;2022-09-01T17:59:29;1.70;;;1.10;;
15130;SDS011;7666;50.920;4.628;2022-09-01T18:08:54;1.73;;;1.03;;
15130;SDS011;7666;50.920;4.628;2022-09-01T18:11:57;2.20;;;0.90;;
15130;SDS011;7666;50.920;4.628;2022-09-01T18:15:04;2.20;;;1.20;;
15130;SDS011;7666;50.920;4.628;2022-09-01T18:20:49;2.13;;;1.30;;
15130;SDS011;7666;50.920;4.628;2022-09-01T18:23:43;3.03;;;1.20;;
15130;SDS011;7666;50.920;4.628;2022-09-01T18:26:33;2.27;;;1.10;;
15130;SDS011;7666;50.920;4.628;2022-09-01T18:29:23;3.40;;;1.20;;
15130;SDS011;7666;50.920;4.628;2022-09-01T18:35:42;1.83;;;0.90;;
15130;SDS011;7666;50.920;4.628;2022-09-01T18:38:27;2.00;;;1.13;;
15130;SDS011;7666;50.920;4.628;2022-09-01T18:41:26;1.67;;;0.90;;
15130;SDS011;7666;50.920;4.628;2022-09-01T18:47:29;4.30;;;1.10;;
15130;SDS011;7666;50.920;4.628;2022-09-01T18:50:27;1.87;;;1.00;;
15130;SDS011;7666;50.920;4.628;2022-09-01T19:09:12;1.57;;;1.20;;
15130;SDS011;7666;50.920;4.628;2022-09-01T19:20:56;3.17;;;1.30;;
15130;SDS011;7666;50.920;4.628;2022-09-01T19:23:55;2.77;;;1.27;;
15130;SDS011;7666;50.920;4.628;2022-09-01T19:26:56;3.03;;;1.27;;
15130;SDS011;7666;50.920;4.628;2022-09-01T19:29:47;4.60;;;1.17;;
15130;SDS011;7666;50.920;4.628;2022-09-01T19:32:37;2.30;;;1.40;;
15130;SDS011;7666;50.920;4.628;2022-09-01T19:35:24;2.30;;;1.50;;
15130;SDS011;7666;50.920;4.628;2022-09-01T19:38:12;9.03;;;1.80;;
15130;SDS011;7666;50.920;4.628;2022-09-01T19:44:03;2.93;;;1.27;;
15130;SDS011;7666;50.920;4.628;2022-09-01T19:47:09;5.33;;;1.53;;
15130;SDS011;7666;50.920;4.628;2022-09-01T19:50:09;7.03;;;1.70;;
15130;SDS011;7666;50.920;4.628;2022-09-01T19:53:04;3.63;;;1.43;;
15130;SDS011;7666;50.920;4.628;2022-09-01T20:08:05;6.97;;;1.10;;
15130;SDS011;7666;50.920;4.628;2022-09-01T20:10:59;3.77;;;1.40;;
15130;SDS011;7666;50.920;4.628;2022-09-01T20:16:43;3.73;;;1.27;;